Latest Weather Observations for Nullo Mountain

IDN60801

Issued at 2:32 pm EST Monday 4 May 2015 (issued every 30 minutes, with the page automatically refreshed every 10 minutes)

About weather observations | Map of weather stations | Latest weather observations for NSW | Other Formats
Station Details ID: 062100 Name: NULLO MOUNTAIN AWS Lat: -32.72 Lon: 150.23 Height: 1130.0 m
Data from the previous 72 hours. | See also: Recent months at Nullo Mountain
Date/Time
EST
Temp
°C
App
Temp
°C
Dew
Point
Rel
Hum
%
Delta-T
°C
Wind Press
QNH
hPa
Press
MSL
hPa
Rain
since 9 am
mm
Dir
 
Spd
km/h
Gust
km/h
Spd
kts
Gust
kts
04/02:30pm 14.1 13.8 12.7 91 0.8 SW 6 7 3 4 - - 0.0
04/02:00pm 14.3 15.2 12.9 91 0.8 CALM 0 0 0 0 - - 0.0
04/01:30pm 14.2 14.6 12.6 90 0.9 WSW 2 6 1 3 - - 0.0
04/01:00pm 14.5 14.5 12.5 88 1.2 SW 4 7 2 4 - - 0.0
04/12:30pm 14.4 14.5 12.8 90 0.9 WSW 4 7 2 4 - - 0.0
04/12:00pm 13.9 14.5 13.1 95 0.5 SSW 2 4 1 2 - - 0.0
04/11:30am 13.4 13.9 12.8 96 0.3 E 2 6 1 3 - - 0.0
04/11:00am 12.8 12.5 12.6 99 0.1 E 6 9 3 5 - - 0.0
04/10:30am 12.3 11.9 12.3 100 0.0 SE 6 11 3 6 - - 0.0
04/10:00am 12.1 11.6 12.1 100 0.0 SE 6 9 3 5 - - 0.0
04/09:30am 11.9 11.2 11.9 100 0.0 SE 7 13 4 7 - - 0.0
04/09:00am 11.8 10.7 11.8 100 0.0 SE 9 13 5 7 - - 1.0
04/08:30am 11.4 9.4 11.4 100 0.0 SE 13 19 7 10 - - 1.0
04/08:00am 11.3 9.6 11.3 100 0.0 ESE 11 22 6 12 - - 1.0
04/07:30am 11.2 9.9 11.2 100 0.0 ESE 9 15 5 8 - - 1.0
04/07:00am 11.1 9.4 11.1 100 0.0 SE 11 20 6 11 - - 1.0
04/06:30am 11.1 9.0 11.1 100 0.0 ESE 13 20 7 11 - - 1.0
04/06:00am 11.0 8.9 11.0 100 0.0 ESE 13 20 7 11 - - 1.0
04/05:30am 11.1 10.1 11.1 100 0.0 SE 7 11 4 6 - - 1.0
04/05:00am 11.2 10.4 11.2 100 0.0 ESE 6 9 3 5 - - 1.0
04/04:30am 11.1 9.8 11.1 100 0.0 ESE 9 15 5 8 - - 1.0
04/04:00am 11.4 9.8 11.4 100 0.0 ESE 11 17 6 9 - - 1.0
04/03:30am 11.3 9.6 11.3 100 0.0 ESE 11 15 6 8 - - 1.0
04/03:00am 11.4 9.8 11.4 100 0.0 ESE 11 17 6 9 - - 1.0
04/02:30am 11.4 9.4 11.4 100 0.0 ESE 13 17 7 9 - - 1.0
04/02:00am 11.5 9.9 11.5 100 0.0 SE 11 17 6 9 - - 1.0
04/01:30am 11.8 9.9 11.8 100 0.0 SE 13 22 7 12 - - 1.0
04/01:00am 11.8 10.3 11.8 100 0.0 ESE 11 17 6 9 - - 1.0
04/12:30am 11.8 9.5 11.8 100 0.0 SE 15 20 8 11 - - 1.0
04/12:00am 12.2 10.8 12.2 100 0.0 SSE 11 17 6 9 - - 1.0
 
Date/Time
EST
Temp
°C
App
Temp
°C
Dew
Point
Rel
Hum
%
Delta-T
°C
Wind Press
QNH
hPa
Press
MSL
hPa
Rain
since 9 am
mm
Dir
 
Spd
km/h
Gust
km/h
Spd
kts
Gust
kts
03/11:30pm 12.5 11.2 12.5 100 0.0 SSE 11 19 6 10 - - 1.0
03/11:00pm 12.6 10.9 12.6 100 0.0 SE 13 20 7 11 - - 0.8
03/10:30pm 12.9 12.5 12.9 100 0.0 SE 7 13 4 7 - - 0.8
03/10:00pm 13.1 12.4 13.1 100 0.0 SE 9 15 5 8 - - 0.8
03/09:30pm 13.1 12.0 13.1 100 0.0 SE 11 17 6 9 - - 0.8
03/09:00pm 13.3 12.6 13.3 100 0.0 SE 9 20 5 11 - - 0.8
03/08:30pm 13.3 12.3 13.3 100 0.0 ESE 11 19 6 10 - - 0.8
03/08:00pm 13.3 12.3 13.3 100 0.0 SE 11 17 6 9 - - 0.8
03/07:30pm 13.3 12.3 13.3 100 0.0 SE 11 17 6 9 - - 0.8
03/07:00pm 13.6 12.7 13.6 100 0.0 SE 11 20 6 11 - - 0.8
03/06:30pm 13.8 12.9 13.8 100 0.0 SSE 11 20 6 11 - - 0.6
03/06:00pm 13.9 13.4 13.7 99 0.1 SSE 9 13 5 7 - - 0.6
03/05:30pm 13.9 13.3 13.4 97 0.3 SE 9 17 5 9 - - 0.6
03/05:00pm 14.2 12.9 13.7 97 0.3 ESE 13 20 7 11 - - 0.6
03/04:30pm 14.6 14.6 14.3 98 0.2 SSE 7 15 4 8 - - 0.6
03/04:00pm 14.9 14.6 14.3 96 0.4 SSE 9 17 5 9 - - 0.6
03/03:30pm 14.7 13.7 14.7 100 0.0 SSE 13 20 7 11 - - 0.6
03/03:00pm 14.6 14.0 14.6 100 0.0 SE 11 17 6 9 - - 0.6
03/02:30pm 15.1 14.1 14.6 97 0.3 SE 13 22 7 12 - - 0.4
03/02:00pm 14.8 13.9 14.8 100 0.0 SSE 13 20 7 11 - - 0.4
03/01:30pm 14.4 13.7 14.4 100 0.0 SE 11 19 6 10 - - 0.4
03/01:00pm 14.0 12.8 14.0 100 0.0 SE 13 24 7 13 - - 0.4
03/12:30pm 14.4 13.7 14.4 100 0.0 SE 11 22 6 12 - - 0.4
03/12:00pm 14.1 13.3 14.1 100 0.0 SSE 11 17 6 9 - - 0.0
03/11:30am 14.3 13.2 14.3 100 0.0 SE 13 20 7 11 - - 0.0
03/11:00am 13.9 12.3 13.9 100 0.0 SE 15 30 8 16 - - 0.0
03/10:30am 14.2 12.7 14.2 100 0.0 SE 15 24 8 13 - - 0.0
03/10:00am 14.0 12.8 14.0 100 0.0 SE 13 22 7 12 - - 0.0
03/09:30am 13.6 11.9 13.6 100 0.0 SE 15 28 8 15 - - 0.0
03/09:00am 13.5 11.8 13.5 100 0.0 SE 15 22 8 12 - - 2.0
03/08:30am 13.3 11.9 13.3 100 0.0 SSE 13 24 7 13 - - 1.8
03/08:00am 13.2 11.7 13.2 100 0.0 SSE 13 22 7 12 - - 1.8
03/07:30am 13.1 10.8 13.1 100 0.0 SE 17 28 9 15 - - 1.8
03/07:00am 13.1 10.8 13.1 100 0.0 SE 17 26 9 14 - - 1.8
03/06:30am 13.1 11.6 13.1 100 0.0 SE 13 28 7 15 - - 1.8
03/06:00am 13.1 11.6 13.1 100 0.0 SE 13 22 7 12 - - 1.8
03/05:30am 13.0 10.7 13.0 100 0.0 SE 17 22 9 12 - - 1.8
03/05:00am 13.0 10.3 13.0 100 0.0 SE 19 32 10 17 - - 1.8
03/04:30am 13.0 10.3 13.0 100 0.0 SE 19 30 10 16 - - 1.8
03/04:00am 13.0 10.7 13.0 100 0.0 ESE 17 28 9 15 - - 1.8
03/03:30am 13.0 10.7 13.0 100 0.0 SE 17 28 9 15 - - 1.8
03/03:00am 13.0 11.1 13.0 100 0.0 SE 15 22 8 12 - - 1.8
03/02:30am 13.0 11.5 13.0 100 0.0 SE 13 24 7 13 - - 1.8
03/02:00am 13.0 10.7 13.0 100 0.0 ESE 17 24 9 13 - - 1.8
03/01:30am 12.9 10.0 12.9 100 0.0 SE 20 33 11 18 - - 1.8
03/01:00am 13.0 10.7 13.0 100 0.0 ESE 17 24 9 13 - - 1.8
03/12:30am 13.2 11.0 13.2 100 0.0 SE 17 28 9 15 - - 1.6
03/12:00am 13.1 11.2 13.1 100 0.0 SE 15 20 8 11 - - 1.6
 
Date/Time
EST
Temp
°C
App
Temp
°C
Dew
Point
Rel
Hum
%
Delta-T
°C
Wind Press
QNH
hPa
Press
MSL
hPa
Rain
since 9 am
mm
Dir
 
Spd
km/h
Gust
km/h
Spd
kts
Gust
kts
02/11:30pm 13.2 11.7 13.2 100 0.0 SE 13 17 7 9 - - 1.6
02/11:00pm 13.4 12.0 13.4 100 0.0 ESE 13 20 7 11 - - 1.6
02/10:30pm 13.4 12.0 13.4 100 0.0 ESE 13 17 7 9 - - 1.6
02/10:00pm 13.4 12.0 13.4 100 0.0 ESE 13 19 7 10 - - 1.6
02/09:30pm 13.3 11.5 13.3 100 0.0 SE 15 22 8 12 - - 1.6
02/09:00pm 13.3 12.3 13.3 100 0.0 SE 11 20 6 11 - - 1.6
02/08:30pm 13.2 12.5 13.2 100 0.0 ESE 9 15 5 8 - - 1.6
02/08:00pm 13.1 11.2 13.1 100 0.0 E 15 22 8 12 - - 1.4
02/07:30pm 13.1 11.6 13.1 100 0.0 ESE 13 22 7 12 - - 1.4
02/07:00pm 13.1 11.6 13.1 100 0.0 ESE 13 20 7 11 - - 1.4
02/06:30pm 13.0 11.5 13.0 100 0.0 ESE 13 20 7 11 - - 1.4
02/06:00pm 13.0 11.9 13.0 100 0.0 SE 11 19 6 10 - - 1.2
02/05:30pm 13.1 11.6 13.1 100 0.0 ESE 13 22 7 12 - - 1.2
02/05:00pm 13.3 12.3 13.3 100 0.0 ESE 11 19 6 10 - - 1.2
02/04:30pm 13.3 11.9 13.3 100 0.0 ESE 13 20 7 11 - - 1.2
02/04:00pm 13.2 11.4 13.2 100 0.0 ESE 15 22 8 12 - - 0.8
02/03:30pm 13.2 11.0 13.2 100 0.0 E 17 24 9 13 - - 0.8
02/03:00pm 13.2 11.0 13.2 100 0.0 E 17 24 9 13 - - 0.8
02/02:30pm 13.1 10.8 13.1 100 0.0 E 17 22 9 12 - - 0.6
02/02:00pm 13.1 10.5 13.1 100 0.0 E 19 26 10 14 - - 0.6
02/01:30pm 13.0 10.3 13.0 100 0.0 E 19 30 10 16 - - 0.6
02/01:00pm 13.0 10.7 13.0 100 0.0 ESE 17 24 9 13 - - 0.4
02/12:30pm 12.7 9.0 12.7 100 0.0 E 24 37 13 20 - - 0.4
02/12:00pm 12.6 9.2 12.6 100 0.0 ESE 22 39 12 21 - - 0.4
02/11:30am 12.7 9.0 12.7 100 0.0 E 24 43 13 23 - - 0.4
02/11:00am 12.6 9.6 12.6 100 0.0 E 20 35 11 19 - - 0.4
02/10:30am 12.4 8.6 12.4 100 0.0 ESE 24 41 13 22 - - 0.4
02/10:02am 12.3 7.7 12.3 100 0.0 E 28 46 15 25 - - 0.2
02/10:00am 12.3 8.1 12.3 100 0.0 E 26 46 14 25 - - 0.2
02/09:30am 12.3 8.8 12.3 100 0.0 E 22 32 12 17 - - 0.2
02/09:06am 12.2 7.6 12.2 100 0.0 E 28 52 15 28 - - 0.0
02/09:00am 12.2 7.9 12.2 100 0.0 E 26 33 14 18 - - 4.6
02/08:30am 12.0 8.4 12.0 100 0.0 E 22 35 12 19 - - 4.6
02/08:00am 11.8 7.8 11.8 100 0.0 E 24 35 13 19 - - 4.4
02/07:39am 11.7 6.9 11.7 100 0.0 ESE 28 46 15 25 - - 4.4
02/07:30am 11.6 7.5 11.6 100 0.0 E 24 44 13 24 - - 4.4
02/07:00am 11.2 7.0 11.2 100 0.0 E 24 37 13 20 - - 4.2
02/06:30am 11.1 6.1 11.1 100 0.0 E 28 48 15 26 - - 4.2
02/06:29am 11.1 6.1 11.1 100 0.0 E 28 48 15 26 - - 4.2
02/06:00am 11.1 6.1 11.1 100 0.0 E 28 41 15 22 - - 4.2
02/05:30am 11.0 5.3 11.0 100 0.0 E 32 50 17 27 - - 4.2
02/05:26am 11.0 5.6 11.0 100 0.0 E 30 48 16 26 - - 4.2
02/05:00am 10.9 6.3 10.9 100 0.0 E 26 37 14 20 - - 4.0
02/04:30am 10.8 5.8 10.8 100 0.0 E 28 41 15 22 - - 4.0
02/04:18am 10.7 5.2 10.7 100 0.0 E 30 48 16 26 - - 4.0
02/04:00am 10.7 4.9 10.7 100 0.0 E 32 43 17 23 - - 4.0
02/03:30am 10.7 4.9 10.7 100 0.0 E 32 56 17 30 - - 4.0
02/03:21am 10.7 5.2 10.7 100 0.0 E 30 56 16 30 - - 3.8
02/03:00am 10.7 5.6 10.7 100 0.0 E 28 39 15 21 - - 3.8
02/02:32am 10.8 5.0 10.8 100 0.0 E 32 54 17 29 - - 3.8
02/02:30am 10.8 5.4 10.8 100 0.0 E 30 44 16 24 - - 3.8
02/02:01am 10.9 5.5 10.9 100 0.0 E 30 50 16 27 - - 3.6
02/02:00am 10.9 5.5 10.9 100 0.0 E 30 46 16 25 - - 3.6
02/01:57am 10.9 5.9 10.9 100 0.0 E 28 46 15 25 - - 3.6
02/01:30am 10.8 6.1 10.8 100 0.0 E 26 39 14 21 - - 3.4
02/01:00am 10.7 6.4 10.7 100 0.0 E 24 39 13 21 - - 3.0
02/12:30am 10.6 6.3 10.6 100 0.0 E 24 33 13 18 - - 2.6
02/12:00am 10.6 5.9 10.6 100 0.0 E 26 41 14 22 - - 2.4
 
Date/Time
EST
Temp
°C
App
Temp
°C
Dew
Point
Rel
Hum
%
Delta-T
°C
Wind Press
QNH
hPa
Press
MSL
hPa
Rain
since 9 am
mm
Dir
 
Spd
km/h
Gust
km/h
Spd
kts
Gust
kts
01/11:30pm 10.7 6.8 10.7 100 0.0 E 22 32 12 17 - - 2.4
01/11:16pm 10.7 5.6 10.7 100 0.0 E 28 46 15 25 - - 2.4
01/11:00pm 10.7 7.1 10.7 100 0.0 E 20 33 11 18 - - 2.2
01/10:30pm 10.6 5.9 10.6 100 0.0 E 26 43 14 23 - - 2.0
01/10:00pm 10.6 6.6 10.6 100 0.0 E 22 35 12 19 - - 2.0
01/09:30pm 10.5 6.9 10.5 100 0.0 E 20 30 11 16 - - 1.6
01/09:00pm 10.5 7.5 10.5 100 0.0 E 17 28 9 15 - - 1.2
01/08:30pm 10.3 7.6 10.3 100 0.0 ESE 15 24 8 13 - - 1.0
01/08:00pm 10.3 6.6 10.3 100 0.0 ESE 20 37 11 20 - - 0.8
01/07:30pm 10.3 6.6 10.3 100 0.0 E 20 33 11 18 - - 0.6
01/07:00pm 10.4 6.7 10.2 99 0.1 ESE 20 30 11 16 - - 0.4
01/06:30pm 10.4 6.4 10.4 100 0.0 ESE 22 35 12 19 - - 0.4
01/06:00pm 10.3 6.8 10.1 99 0.1 ESE 19 32 10 17 - - 0.4
01/05:30pm 10.4 7.2 9.9 97 0.3 ESE 17 26 9 14 - - 0.4
01/05:00pm 10.5 7.3 10.0 97 0.3 ESE 17 28 9 15 - - 0.4
01/04:30pm 10.4 6.8 9.8 96 0.3 E 19 30 10 16 - - 0.4
01/04:00pm 10.4 7.1 9.6 95 0.4 ESE 17 24 9 13 - - 0.4
01/03:30pm 10.4 7.1 9.6 95 0.4 ESE 17 30 9 16 - - 0.4
01/03:00pm 10.4 7.2 9.9 97 0.3 ESE 17 30 9 16 - - 0.4

Other Formats:

Comma delimited format used in spreadsheet applications
http://www.bom.gov.au/fwo/IDN60801/IDN60801.94754.axf

JavaScript Object Notation format (JSON) in row-major order
http://www.bom.gov.au/fwo/IDN60801/IDN60801.94754.json